Time;durP1;ratioP1;P1;durP2;ratioP2;P2;SDS_P1;SDS_P2;PMS_P1;PMS_P2;Temp;Humidity;BMP_temperature;BMP_pressure;BME280_temperature;BME280_humidity;BME280_pressure;Samples;Min_cycle;Max_cycle;Signal;HPM_P1;HPM_P2
2022/02/04 00:24:45;;;;;;;;;17.00;16.00;;;;;9.09;70.53;101407.47;6220948;22;45767;-83
2022/02/04 00:27:17;;;;;;;;;15.50;14.00;;;;;9.04;70.81;101407.41;6306818;22;45252;-82
2022/02/04 00:29:55;;;;;;;;;14.50;13.50;;;;;9.17;71.04;101418.97;6279620;22;47280;-81
2022/02/04 00:32:23;;;;;;;;;14.75;12.00;;;;;9.17;70.66;101418.97;6279814;22;45404;-82
2022/02/04 00:34:56;;;;;;;;;18.50;15.75;;;;;9.17;70.86;101420.72;6278925;22;45447;-81
2022/02/04 00:39:55;;;;;;;;;9.75;9.75;;;;;9.05;70.72;101390.78;6307601;22;45561;-81
2022/02/04 00:42:23;;;;;;;;;12.00;12.00;;;;;9.07;70.59;101388.19;6280538;22;45534;-81
2022/02/04 00:44:56;;;;;;;;;15.25;13.50;;;;;9.13;70.78;101385.63;6279370;22;45457;-82
2022/02/04 00:47:24;;;;;;;;;15.50;14.00;;;;;9.15;70.50;101393.53;6279580;22;45449;-81
2022/02/04 00:50:12;;;;;;;;;11.75;9.25;;;;;9.19;70.77;101406.72;6307702;22;45695;-80
2022/02/04 00:52:46;;;;;;;;;12.25;12.25;;;;;9.10;70.75;101384.72;6305624;22;45738;-81
2022/02/04 01:27:12;;;;;;;;;10.75;10.75;;;;;9.07;70.83;101392.56;6310098;22;45411;-83
2022/02/04 01:30:28;;;;;;;;;;;;;;;;;;;;;
2022/02/04 01:33:10;;;;;;;;;;;;;;;;;;;;;
2022/02/04 01:35:39;;;;;;;;;15.50;11.50;;;;;9.15;71.07;101402.28;6309048;22;74011;-83
2022/02/04 01:38:48;;;;;;;;;;;;;;;;;;;;;
2022/02/04 01:41:17;;;;;;;;;12.75;10.50;;;;;9.10;71.03;101387.34;6308814;22;69217;-83
2022/02/04 01:43:51;;;;;;;;;12.25;12.00;;;;;9.15;71.04;101396.16;6310228;22;45483;-84
2022/02/04 01:47:12;;;;;;;;;;;;;;;;;;;;;
2022/02/04 01:54:00;;;;;;;;;13.00;11.50;;;;;9.17;71.20;101404.94;6208646;22;45586;-84
2022/02/04 01:56:40;;;;;;;;;10.75;9.75;;;;;9.02;70.76;101374.09;6187035;22;45443;-84
2022/02/04 01:59:19;;;;;;;;;;;;;;;;;;;;;
2022/02/04 02:01:53;;;;;;;;;13.00;12.50;;;;;9.05;71.29;101379.38;6274565;22;73375;-84
2022/02/04 02:04:39;;;;;;;;;14.50;12.75;;;;;9.02;71.08;101372.34;6250333;22;45319;-83
2022/02/04 02:11:50;;;;;;;;;;;;;;;;;;;;;
2022/02/04 02:44:28;;;;;;;;;11.00;11.00;;;;;9.00;72.16;101349.56;6310754;22;45228;-84
2022/02/04 02:47:21;;;;;;;;;15.25;10.75;;;;;9.08;72.15;101363.66;6310371;22;45167;-84
2022/02/04 02:53:50;;;;;;;;;13.75;12.00;;;;;8.96;72.10;101335.53;6308374;22;45239;-83
2022/02/04 02:57:04;;;;;;;;;12.50;10.75;;;;;8.96;72.15;101343.41;6281870;22;45235;-83
2022/02/04 03:02:32;;;;;;;;;12.00;10.75;;;;;9.00;72.29;101360.06;6230380;22;45512;-83
2022/02/04 03:05:00;;;;;;;;;11.00;9.50;;;;;8.88;72.42;101331.03;6308140;22;45353;-83
2022/02/04 03:07:28;;;;;;;;;14.00;10.25;;;;;8.98;72.29;101346.03;6310116;22;45088;-84
2022/02/04 03:10:56;;;;;;;;;;;;;;;;;;;;;
2022/02/04 03:17:47;;;;;;;;;11.50;8.00;;;;;8.98;72.45;101330.28;6298767;22;45249;-84
2022/02/04 03:21:26;;;;;;;;;;;;;;;;;;;;;
2022/02/04 03:24:29;;;;;;;;;13.50;7.75;;;;;8.94;72.57;101333.75;6296839;22;76142;-83
2022/02/04 03:27:08;;;;;;;;;10.75;9.00;;;;;8.97;72.68;101339.03;6281655;22;45234;-83
2022/02/04 03:32:26;;;;;;;;;7.25;7.25;;;;;8.91;72.42;101318.81;6310207;22;45467;-84
2022/02/04 03:34:57;;;;;;;;;10.00;9.50;;;;;8.95;72.69;101325.88;6310142;22;45388;-82
2022/02/04 03:54:27;;;;;;;;;;;;;;;;;;;;;
2022/02/04 04:11:45;;;;;;;;;;;;;;;;;;;;;
2022/02/04 04:15:12;;;;;;;;;12.75;10.75;;;;;8.98;73.13;101325.03;5992309;23;75134;-84
2022/02/04 04:18:22;;;;;;;;;;;;;;;;;;;;;
2022/02/04 04:24:40;;;;;;;;;9.25;9.25;;;;;8.96;73.41;101309.25;5985176;23;45528;-83
2022/02/04 04:27:05;;;;;;;;;14.00;10.00;;;;;8.90;73.05;101298.69;6139353;22;46282;-83
2022/02/04 04:29:33;;;;;;;;;16.75;15.00;;;;;8.98;73.38;101306.63;6281532;22;45905;-84
2022/02/04 04:31:59;;;;;;;;;10.25;10.25;;;;;8.87;73.21;101289.88;6280506;22;45396;-82
2022/02/04 04:35:24;;;;;;;;;13.75;11.00;;;;;8.83;73.72;101289.84;6281367;22;45789;-84
2022/02/04 05:42:57;;;;;;;;;;;;;;;;;;;;;
2022/02/04 05:46:24;;;;;;;;;;;;;;;;;;;;;
2022/02/04 06:03:11;;;;;;;;;;;;;;;;;;;;;
2022/02/04 06:23:31;;;;;;;;;;;;;;;;;;;;;
2022/02/04 06:30:27;;;;;;;;;21.50;19.25;;;;;9.01;72.27;101231.41;5856446;24;45290;-84
2022/02/04 06:33:23;;;;;;;;;18.75;18.25;;;;;9.03;72.45;101245.44;6137420;22;45199;-84
2022/02/04 06:39:34;;;;;;;;;16.25;15.00;;;;;9.04;71.98;101235.81;6228998;22;45806;-84
2022/02/04 06:49:43;;;;;;;;;20.75;17.25;;;;;9.06;71.98;101231.44;6105342;23;46265;-83
2022/02/04 06:52:58;;;;;;;;;17.75;14.75;;;;;9.07;71.74;101234.97;6124708;23;46466;-83
2022/02/04 07:06:16;;;;;;;;;12.50;12.00;;;;;9.17;72.08;101249.97;5920225;23;46049;-84
2022/02/04 07:11:38;;;;;;;;;20.25;15.75;;;;;9.07;71.78;101237.59;5922301;24;45364;-84
2022/02/04 07:28:46;;;;;;;;;14.50;10.50;;;;;9.25;71.45;101264.94;5752447;24;45446;-86
2022/02/04 07:51:43;;;;;;;;;13.25;12.75;;;;;9.28;70.46;101230.81;6275613;22;45212;-84
2022/02/04 07:54:13;;;;;;;;;17.50;14.50;;;;;9.31;70.86;101229.97;6277501;22;46059;-84
2022/02/04 07:57:16;;;;;;;;;14.50;12.25;;;;;9.39;70.19;101245.78;6250785;22;45446;-83
2022/02/04 07:59:46;;;;;;;;;13.00;11.25;;;;;9.28;70.53;101214.16;6277704;22;45402;-83
2022/02/04 08:02:12;;;;;;;;;20.75;17.25;;;;;9.25;69.97;101206.25;6251050;22;45509;-85
2022/02/04 08:04:40;;;;;;;;;15.75;12.00;;;;;9.31;70.22;101208.94;6278928;22;45933;-83
2022/02/04 08:07:11;;;;;;;;;13.75;13.75;;;;;9.48;69.96;101243.22;6254098;22;45819;-83
2022/02/04 08:09:50;;;;;;;;;14.50;12.50;;;;;9.32;69.82;101218.56;6280490;22;45453;-84
2022/02/04 08:15:19;;;;;;;;;12.00;10.25;;;;;9.46;69.94;101250.22;6278606;22;45223;-84
2022/02/04 08:20:37;;;;;;;;;15.50;14.25;;;;;9.45;69.75;101241.47;6279749;22;45181;-84
2022/02/04 08:26:02;;;;;;;;;10.00;9.75;;;;;9.41;69.80;101220.38;6277996;22;45228;-85
2022/02/04 09:02:41;;;;;;;;;11.00;9.00;;;;;9.69;67.94;101226.75;5978095;23;45413;-82
2022/02/04 09:12:01;;;;;;;;;8.50;8.00;;;;;9.63;67.48;101203.94;5962409;23;45512;-82
2022/02/04 09:17:48;;;;;;;;;8.50;8.50;;;;;9.73;67.02;101223.31;6120473;23;45728;-82
2022/02/04 09:20:24;;;;;;;;;11.00;10.00;;;;;9.83;67.19;101216.34;6123513;23;45511;-82
2022/02/04 09:22:59;;;;;;;;;11.75;7.50;;;;;9.84;67.33;101215.50;6244527;22;45350;-83
2022/02/04 09:25:27;;;;;;;;;10.25;7.00;;;;;9.72;66.74;101196.09;6245401;22;45225;-81
2022/02/04 09:27:58;;;;;;;;;10.25;9.00;;;;;9.77;66.97;101197.91;6245787;22;46185;-82
2022/02/04 09:31:19;;;;;;;;;8.50;7.00;;;;;9.90;67.16;101208.50;6247588;22;45173;-83
2022/02/04 09:34:23;;;;;;;;;10.75;8.50;;;;;9.93;66.80;101213.78;6216912;22;45543;-85
2022/02/04 09:39:40;;;;;;;;;9.75;6.50;;;;;9.89;66.85;101214.66;6241801;22;45773;-82
2022/02/04 09:42:06;;;;;;;;;10.50;8.00;;;;;9.87;67.09;101219.00;6217389;22;45365;-81
2022/02/04 09:44:32;;;;;;;;;11.00;9.75;;;;;9.84;67.34;101211.09;6243121;22;45487;-82
2022/02/04 09:46:57;;;;;;;;;12.25;11.00;;;;;9.86;67.51;101216.34;6219489;22;45472;-80
2022/02/04 09:49:29;;;;;;;;;10.25;8.00;;;;;9.91;67.84;101235.69;6219167;22;46775;-80
2022/02/04 10:08:53;;;;;;;;;11.50;11.50;;;;;9.76;68.85;101215.44;6245990;22;45174;-83
2022/02/04 10:12:06;;;;;;;;;10.00;8.75;;;;;9.86;69.03;101208.47;6217851;22;47278;-82
2022/02/04 10:19:49;;;;;;;;;11.25;10.25;;;;;10.19;68.34;101181.50;6244707;22;45195;-83
2022/02/04 10:22:47;;;;;;;;;9.00;8.00;;;;;10.19;67.76;101155.19;6218792;22;48112;-83
2022/02/04 10:25:12;;;;;;;;;9.50;9.00;;;;;10.30;67.64;101155.28;6244697;22;45149;-83
2022/02/04 10:27:38;;;;;;;;;9.00;9.00;;;;;10.38;67.37;101169.34;6219577;22;45229;-83
2022/02/04 10:30:08;;;;;;;;;4.25;4.00;;;;;10.47;66.71;101181.63;6219591;22;45221;-83
2022/02/04 10:32:40;;;;;;;;;8.50;6.50;;;;;10.49;66.80;101186.03;6219276;22;47184;-82
2022/02/04 10:36:06;;;;;;;;;7.00;4.75;;;;;10.53;66.80;101179.03;6219784;22;45134;-83
2022/02/04 10:38:42;;;;;;;;;5.50;3.75;;;;;10.47;66.03;101166.72;6241084;22;45344;-85
2022/02/04 10:46:48;;;;;;;;;6.25;6.25;;;;;10.70;65.81;101176.47;6124437;23;45352;-84
2022/02/04 11:05:46;;;;;;;;;11.25;9.50;;;;;11.09;65.68;101169.50;6182716;23;46786;-84
2022/02/04 11:08:42;;;;;;;;;7.50;5.00;;;;;11.08;65.37;101167.75;6269631;22;45550;-83
2022/02/04 11:48:00;;;;;;;;;5.00;5.00;;;;;12.29;59.93;101089.25;6265145;22;45353;-85
2022/02/04 11:54:19;;;;;;;;;2.67;2.67;;;;;12.35;58.83;101075.19;6276270;22;45432;-83
2022/02/04 12:00:31;;;;;;;;;;;;;;;;;;;;;
2022/02/04 12:02:57;;;;;;;;;2.00;2.00;;;;;12.66;58.28;101075.84;6120933;23;72850;-83
2022/02/04 12:05:23;;;;;;;;;2.25;2.00;;;;;12.74;57.39;101059.94;6229564;22;47393;-82
2022/02/04 12:07:56;;;;;;;;;4.00;2.00;;;;;12.75;57.92;101037.91;6246112;22;45443;-82
2022/02/04 12:11:23;;;;;;;;;;;;;;;;;;;;;
2022/02/04 12:14:16;;;;;;;;;;;;;;;;;;;;;
2022/02/04 12:20:33;;;;;;;;;1.33;1.33;;;;;12.98;56.96;101035.97;6181502;23;45501;-84
2022/02/04 12:23:03;;;;;;;;;2.33;1.00;;;;;13.20;56.86;101025.19;6182698;23;45270;-83
2022/02/04 12:25:58;;;;;;;;;4.00;4.00;;;;;13.57;55.47;101019.53;6227511;22;45353;-84
2022/02/04 12:28:56;;;;;;;;;2.00;1.00;;;;;13.98;55.02;101013.75;6277118;22;45398;-82
2022/02/04 12:31:29;;;;;;;;;4.00;2.00;;;;;14.15;53.66;101004.69;6249418;22;45440;-84
2022/02/04 12:33:58;;;;;;;;;1.33;1.33;;;;;14.32;52.83;101008.81;6251324;22;45329;-84
2022/02/04 12:37:12;;;;;;;;;3.00;3.00;;;;;14.52;52.34;100995.31;6252160;22;45233;-84
2022/02/04 12:39:46;;;;;;;;;1.67;1.00;;;;;14.67;52.53;100980.91;6242251;22;47860;-85
2022/02/04 12:42:35;;;;;;;;;2.33;2.00;;;;;14.88;51.66;100976.16;6247902;22;45698;-83
2022/02/04 12:45:05;;;;;;;;;0.67;0.67;;;;;15.05;51.26;100976.75;6275129;22;45356;-83
2022/02/04 12:47:32;;;;;;;;;2.00;2.00;;;;;14.90;50.76;100956.69;6247717;22;45481;-81
2022/02/04 12:50:00;;;;;;;;;0.00;0.00;;;;;14.85;50.65;100973.56;6275792;22;46356;-83
2022/02/04 12:55:06;;;;;;;;;4.00;3.00;;;;;14.89;50.72;100983.19;6275341;22;45230;-81
2022/02/04 13:11:34;;;;;;;;;0.33;0.33;;;;;13.98;50.42;100958.16;6121370;23;45535;-85
2022/02/04 13:14:13;;;;;;;;;;;;;;;;;;;;;
2022/02/04 13:16:54;;;;;;;;;2.00;1.00;;;;;13.66;50.56;100967.41;6221728;22;67413;-83
2022/02/04 13:19:19;;;;;;;;;0.67;0.67;;;;;13.57;51.01;100972.78;6243135;22;45546;-82
2022/02/04 13:21:45;;;;;;;;;2.33;2.00;;;;;13.41;51.42;100958.88;6216777;22;45831;-82
2022/02/04 13:24:11;;;;;;;;;0.33;0.33;;;;;13.33;51.51;100978.38;6216842;22;45464;-82
2022/02/04 13:26:50;;;;;;;;;0.33;0.33;;;;;13.27;51.83;100963.44;6217495;22;45308;-81
2022/02/04 13:29:40;;;;;;;;;0.00;0.00;;;;;13.17;52.60;100980.28;6243170;22;45369;-83
2022/02/04 13:32:32;;;;;;;;;0.00;0.00;;;;;13.05;52.53;100964.56;6242832;22;46908;-82
2022/02/04 13:35:00;;;;;;;;;0.67;0.67;;;;;13.01;52.08;100991.00;6216231;22;45399;-82
2022/02/04 13:37:32;;;;;;;;;0.33;0.33;;;;;12.94;52.99;100976.09;6244026;22;45429;-82
2022/02/04 13:40:04;;;;;;;;;2.00;1.00;;;;;12.85;53.08;100965.59;6243996;22;45429;-84
2022/02/04 13:42:54;;;;;;;;;0.67;0.67;;;;;12.86;53.47;100958.59;6216778;22;47400;-85
2022/02/04 13:45:36;;;;;;;;;0.67;0.00;;;;;12.81;53.94;100958.63;6243542;22;45508;-83
2022/02/04 13:48:15;;;;;;;;;2.33;2.33;;;;;12.75;54.22;100953.38;6215905;22;45282;-85
2022/02/04 14:00:17;;;;;;;;;1.00;1.00;;;;;12.62;55.29;100986.09;6247178;22;45286;-84
2022/02/04 14:02:48;;;;;;;;;0.00;0.00;;;;;12.61;55.60;100977.28;6273583;22;46205;-85
2022/02/04 14:05:28;;;;;;;;;0.00;0.00;;;;;12.60;55.88;100969.38;6275814;22;45329;-85
2022/02/04 14:08:06;;;;;;;;;2.00;1.00;;;;;12.60;56.08;100964.97;6274556;22;45291;-86
2022/02/04 14:10:40;;;;;;;;;0.67;0.67;;;;;12.67;56.24;100977.25;6274987;22;45254;-84
2022/02/04 14:13:09;;;;;;;;;0.00;0.00;;;;;12.66;56.63;100985.16;6274541;22;45665;-89
2022/02/04 14:15:37;;;;;;;;;4.00;2.67;;;;;12.62;56.39;100989.59;6278004;22;46884;-86
2022/02/04 14:18:09;;;;;;;;;0.67;0.00;;;;;12.63;56.89;100978.16;6276936;22;45302;-85
2022/02/04 14:20:40;;;;;;;;;0.67;0.67;;;;;12.59;57.13;100976.44;6275744;22;45765;-85
2022/02/04 14:23:07;;;;;;;;;0.67;0.67;;;;;12.45;57.51;100992.34;6275263;22;45274;-84
2022/02/04 14:25:56;;;;;;;;;1.67;1.67;;;;;12.49;58.69;101022.28;6273810;22;47457;-82
2022/02/04 14:28:32;;;;;;;;;1.00;0.00;;;;;12.35;58.49;100998.63;6274376;22;45363;-85
2022/02/04 14:31:05;;;;;;;;;0.00;0.00;;;;;12.30;59.03;100995.13;6299893;22;45388;-87
2022/02/04 14:52:58;;;;;;;;;3.00;1.00;;;;;11.79;62.93;101085.06;6276315;22;45423;-83
2022/02/04 15:00:49;;;;;;;;;0.67;0.00;;;;;11.41;65.36;101122.06;6276625;22;45207;-84
2022/02/04 15:03:20;;;;;;;;;1.00;1.00;;;;;11.37;64.93;101134.38;6275000;22;45372;-83
2022/02/04 15:06:00;;;;;;;;;1.00;1.00;;;;;11.29;65.11;101153.72;6273189;22;45382;-84
2022/02/04 15:08:26;;;;;;;;;2.75;2.75;;;;;11.23;65.19;101159.88;6274176;22;47442;-85
2022/02/04 15:10:53;;;;;;;;;0.00;0.00;;;;;11.08;65.48;101151.94;6275808;22;45334;-83
2022/02/04 15:13:19;;;;;;;;;1.00;1.00;;;;;11.06;65.90;101154.56;6275445;22;45375;-85
2022/02/04 15:15:44;;;;;;;;;2.00;2.00;;;;;11.01;66.55;101158.94;6274594;22;45427;-84
2022/02/04 15:18:11;;;;;;;;;2.00;2.00;;;;;11.00;66.15;101178.28;6274295;22;46966;-85
2022/02/04 15:20:37;;;;;;;;;1.00;1.00;;;;;10.90;65.03;101190.53;6274788;22;45170;-84
2022/02/04 15:23:03;;;;;;;;;0.33;0.33;;;;;10.79;65.05;101181.75;6273608;22;45386;-85
2022/02/04 15:25:28;;;;;;;;;2.00;2.00;;;;;10.64;64.99;101190.50;6274073;22;45502;-83
2022/02/04 15:28:12;;;;;;;;;2.00;2.00;;;;;10.62;65.82;101209.78;6275883;22;46153;-84
2022/02/04 15:30:44;;;;;;;;;1.00;1.00;;;;;10.58;65.87;101227.31;6276356;22;45428;-83
2022/02/04 15:33:10;;;;;;;;;2.00;1.33;;;;;10.46;66.32;101235.16;6274522;22;45242;-82
2022/02/04 15:35:36;;;;;;;;;3.00;3.00;;;;;10.35;66.38;101227.22;6273897;22;45413;-84
2022/02/04 15:38:12;;;;;;;;;;;;;;;;;;;;;
2022/02/04 15:40:42;;;;;;;;;0.00;0.00;;;;;10.19;65.61;101231.50;6274334;22;72775;-85
2022/02/04 15:43:08;;;;;;;;;1.75;1.00;;;;;10.20;65.69;101240.25;6275798;22;45291;-83
2022/02/04 15:55:21;;;;;;;;;2.00;2.00;;;;;10.31;65.06;101251.75;6274647;22;45348;-82
2022/02/04 16:03:35;;;;;;;;;1.00;1.00;;;;;10.53;63.86;101279.97;6275700;22;45260;-86
2022/02/04 16:06:09;;;;;;;;;2.33;1.33;;;;;10.51;63.47;101283.47;6273192;22;45245;-83
2022/02/04 16:08:40;;;;;;;;;1.67;1.00;;;;;10.50;63.04;101290.44;6274721;22;45353;-86
2022/02/04 16:11:32;;;;;;;;;1.33;1.00;;;;;10.34;62.58;101289.50;6299314;22;47063;-85
2022/02/04 16:14:10;;;;;;;;;1.00;1.00;;;;;10.34;62.22;101293.88;6270965;22;45807;-84
2022/02/04 16:16:47;;;;;;;;;0.33;0.33;;;;;10.31;61.94;101307.00;6275851;22;45458;-85
2022/02/04 16:22:04;;;;;;;;;7.00;4.00;;;;;10.25;61.85;101326.25;6276076;22;45497;-86
2022/02/04 16:30:52;;;;;;;;;;;;;;;;;;;;;
2022/02/04 16:33:18;;;;;;;;;1.00;1.00;;;;;9.77;59.88;101335.50;6274560;22;75667;-85
2022/02/04 16:35:51;;;;;;;;;1.00;1.00;;;;;9.64;58.97;101338.88;6273299;22;45394;-86
2022/02/04 16:38:18;;;;;;;;;1.33;1.00;;;;;9.57;58.51;101335.34;6273776;22;45284;-87
2022/02/04 16:40:46;;;;;;;;;2.25;2.25;;;;;9.57;58.51;101356.34;6274889;22;45502;-85
2022/02/04 16:43:15;;;;;;;;;1.00;1.00;;;;;9.57;58.41;101372.13;6272791;22;47372;-85
2022/02/04 16:45:51;;;;;;;;;3.00;1.50;;;;;9.48;58.00;101359.75;6271966;22;45437;-82
2022/02/04 16:48:17;;;;;;;;;1.75;0.25;;;;;9.39;58.26;101372.81;6272280;22;45341;-83
2022/02/04 16:50:53;;;;;;;;;1.00;1.00;;;;;9.43;57.99;101392.09;6274901;22;45266;-84
2022/02/04 16:53:19;;;;;;;;;1.33;0.67;;;;;9.23;58.13;101376.13;6272582;22;48243;-85
2022/02/04 16:55:44;;;;;;;;;4.00;1.67;;;;;9.26;58.04;101392.78;6271671;22;45129;-85
2022/02/04 16:58:10;;;;;;;;;2.25;2.25;;;;;9.13;57.98;101388.25;6272139;22;45129;-84
2022/02/04 17:00:38;;;;;;;;;2.00;1.00;;;;;9.18;57.73;101418.09;6272531;22;45690;-84
2022/02/04 17:03:09;;;;;;;;;2.00;2.00;;;;;9.07;58.14;101406.56;6272964;22;47440;-85
2022/02/04 17:08:34;;;;;;;;;2.75;2.75;;;;;8.91;58.54;101405.47;6269506;22;45396;-84
2022/02/04 17:11:11;;;;;;;;;6.50;6.00;;;;;9.01;58.57;101438.88;6272899;22;45373;-84
2022/02/04 17:13:36;;;;;;;;;3.50;3.25;;;;;8.98;58.32;101446.72;6273298;22;47356;-84
2022/02/04 17:16:16;;;;;;;;;;;;;;;;;;;;;
2022/02/04 17:18:45;;;;;;;;;2.75;2.75;;;;;8.93;58.73;101452.78;6274059;22;69255;-84
2022/02/04 17:21:13;;;;;;;;;2.75;2.75;;;;;8.86;58.89;101443.91;6273458;22;45462;-83
2022/02/04 17:23:43;;;;;;;;;4.00;2.50;;;;;8.82;59.20;101447.34;6271938;22;46190;-82
2022/02/04 17:26:15;;;;;;;;;5.00;4.25;;;;;8.82;58.91;101457.84;6272549;22;45511;-83
2022/02/04 17:28:49;;;;;;;;;7.00;7.00;;;;;8.76;58.93;101461.25;6299199;22;45324;-82
2022/02/04 17:31:15;;;;;;;;;5.50;5.50;;;;;8.76;58.98;101463.00;6275774;22;45333;-81
2022/02/04 17:33:43;;;;;;;;;4.00;4.00;;;;;8.71;59.25;101462.06;6298420;22;46889;-82
2022/02/04 17:36:08;;;;;;;;;4.25;4.25;;;;;8.68;59.21;101465.50;6272703;22;45338;-81
2022/02/04 17:38:36;;;;;;;;;5.00;4.00;;;;;8.60;59.51;101470.63;6275464;22;45361;-80
2022/02/04 17:41:12;;;;;;;;;9.50;7.75;;;;;8.69;59.47;101496.16;6275136;22;45409;-80
2022/02/04 17:43:40;;;;;;;;;8.50;8.50;;;;;8.72;59.51;101505.84;6273793;22;47110;-82
2022/02/04 17:46:08;;;;;;;;;5.25;4.00;;;;;8.65;59.56;101514.47;6276074;22;45310;-83
2022/02/04 17:48:47;;;;;;;;;7.00;5.25;;;;;8.61;59.53;101524.91;6275958;22;45368;-82
2022/02/04 17:51:51;;;;;;;;;3.50;3.00;;;;;8.56;58.96;101523.06;6275427;22;45652;-83
2022/02/04 17:54:08;;;;;;;;;6.50;4.00;;;;;8.51;58.95;101517.72;6271036;22;46140;-82
2022/02/04 17:56:59;;;;;;;;;5.00;5.00;;;;;8.52;59.21;101536.97;6272763;22;45291;-83
2022/02/04 18:02:11;;;;;;;;;3.50;3.50;;;;;8.48;58.75;101549.19;6273294;22;45425;-83
2022/02/04 18:07:24;;;;;;;;;4.00;4.00;;;;;8.43;58.81;101565.69;6271376;22;45508;-83
2022/02/04 18:09:50;;;;;;;;;3.50;3.50;;;;;8.29;58.93;101553.19;6270347;22;45564;-83
2022/02/04 18:12:24;;;;;;;;;7.00;7.00;;;;;8.32;58.75;101571.59;6270694;22;45350;-85
2022/02/04 18:14:50;;;;;;;;;4.50;4.50;;;;;8.27;58.60;101570.63;6272130;22;45422;-84
2022/02/04 18:17:17;;;;;;;;;7.00;6.25;;;;;8.25;58.87;101569.69;6271859;22;45457;-84
2022/02/04 18:19:44;;;;;;;;;3.00;2.75;;;;;8.26;58.99;101578.44;6273869;22;45504;-81
2022/02/04 18:22:10;;;;;;;;;3.25;3.00;;;;;8.18;58.85;101573.06;6271426;22;45506;-81
2022/02/04 18:24:38;;;;;;;;;6.00;6.00;;;;;8.21;58.89;101578.38;6270885;22;48139;-81
2022/02/04 18:27:12;;;;;;;;;3.75;3.75;;;;;8.07;59.03;101569.34;6270753;22;45388;-81
2022/02/04 18:29:43;;;;;;;;;4.50;4.50;;;;;8.18;59.13;101597.56;6269703;22;45522;-79
2022/02/04 18:32:08;;;;;;;;;6.00;6.00;;;;;8.06;58.69;101584.19;6273521;22;45458;-80
2022/02/04 18:34:34;;;;;;;;;7.00;4.00;;;;;8.11;58.87;101595.66;6270390;22;47069;-80
2022/02/04 18:37:02;;;;;;;;;3.75;3.00;;;;;8.09;58.90;101594.72;6271639;22;45461;-80
2022/02/04 18:45:25;;;;;;;;;4.00;3.50;;;;;7.87;59.57;101589.91;6261773;22;45442;-82
2022/02/04 18:48:00;;;;;;;;;4.50;3.00;;;;;7.87;59.92;101592.53;6274195;22;45456;-81
2022/02/04 18:53:09;;;;;;;;;6.25;3.25;;;;;7.95;60.01;101625.03;6276466;22;45297;-82
2022/02/04 18:58:04;;;;;;;;;5.50;5.50;;;;;7.77;60.24;101599.31;6276363;22;45417;-81
2022/02/04 19:00:30;;;;;;;;;4.00;4.00;;;;;7.87;60.26;101630.13;6275120;22;45257;-81
2022/02/04 19:02:59;;;;;;;;;5.00;3.25;;;;;7.86;60.22;101622.25;6275765;22;45590;-81
2022/02/04 19:05:29;;;;;;;;;6.50;6.00;;;;;7.84;60.38;101629.19;6276597;22;47090;-82
2022/02/04 19:08:02;;;;;;;;;3.50;3.50;;;;;7.86;60.07;101632.72;6278953;22;45311;-81
2022/02/04 19:10:27;;;;;;;;;9.25;6.25;;;;;7.81;60.17;101626.50;6277236;22;45535;-81
2022/02/04 19:12:59;;;;;;;;;6.00;6.00;;;;;7.83;60.03;101623.06;6279350;22;45275;-78
2022/02/04 19:17:55;;;;;;;;;4.00;4.00;;;;;7.75;59.96;101627.22;6275680;22;45390;-80
2022/02/04 19:23:32;;;;;;;;;7.75;4.00;;;;;7.63;60.11;101619.97;6271438;22;45473;-81
2022/02/04 19:26:01;;;;;;;;;8.00;5.50;;;;;7.78;60.03;101645.66;6277363;22;46947;-79
2022/02/04 19:28:28;;;;;;;;;6.50;3.50;;;;;7.71;59.84;101636.75;6279278;22;45450;-82
2022/02/04 19:30:58;;;;;;;;;5.00;4.00;;;;;7.62;59.54;101628.69;6272525;22;45437;-80
2022/02/04 19:33:25;;;;;;;;;5.25;5.25;;;;;7.66;59.63;101650.63;6277893;22;45500;-82
2022/02/04 19:35:50;;;;;;;;;10.00;6.75;;;;;7.55;59.38;101633.75;6273042;22;47405;-80
2022/02/04 19:38:20;;;;;;;;;6.00;5.50;;;;;7.62;59.35;101649.66;6278782;22;45262;-81
2022/02/04 19:40:46;;;;;;;;;8.25;8.25;;;;;7.61;59.53;101647.88;6277038;22;45432;-80
2022/02/04 19:43:15;;;;;;;;;11.00;10.00;;;;;7.61;59.33;101655.75;6275578;22;45368;-81
2022/02/04 19:46:28;;;;;;;;;6.50;6.25;;;;;7.58;59.21;101650.44;6299657;22;47055;-80
2022/02/04 19:48:33;;;;;;;;;9.50;6.25;;;;;7.67;59.57;101670.72;6272010;22;45278;-80
2022/02/04 20:07:35;;;;;;;;;6.25;6.00;;;;;7.57;59.80;101702.81;6273363;22;45733;-79
2022/02/04 20:25:01;;;;;;;;;7.00;7.00;;;;;7.43;60.10;101707.69;6272694;22;45346;-80
2022/02/04 20:27:40;;;;;;;;;;;;;;;;;;;;;
2022/02/04 20:30:06;;;;;;;;;3.25;2.00;;;;;7.38;60.25;101697.13;6270185;22;74041;-81
2022/02/04 20:32:34;;;;;;;;;1.25;1.25;;;;;7.42;60.39;101722.53;6273098;22;45724;-81
2022/02/04 20:34:59;;;;;;;;;7.25;6.00;;;;;7.49;60.51;101740.19;6273454;22;45388;-80
2022/02/04 20:37:25;;;;;;;;;3.00;3.00;;;;;7.43;60.47;101734.81;6274614;22;45429;-78
2022/02/04 20:40:16;;;;;;;;;6.25;3.75;;;;;7.37;60.35;101725.88;6273209;22;45585;-79
2022/02/04 20:42:42;;;;;;;;;8.00;6.25;;;;;7.33;60.29;101714.47;6269160;22;45443;-80
2022/02/04 20:45:08;;;;;;;;;7.00;6.25;;;;;7.49;60.44;101753.28;6270206;22;45641;-82
2022/02/04 20:47:36;;;;;;;;;6.00;3.25;;;;;7.37;60.37;101734.63;6272209;22;45820;-81
2022/02/04 20:50:04;;;;;;;;;6.75;5.50;;;;;7.36;60.36;101732.00;6273285;22;47120;-83
2022/02/04 20:52:32;;;;;;;;;6.75;5.00;;;;;7.48;60.40;101756.78;6275755;22;45307;-78
2022/02/04 20:54:58;;;;;;;;;9.25;9.25;;;;;7.39;60.29;101746.03;6275072;22;45303;-82
2022/02/04 20:57:23;;;;;;;;;7.00;6.00;;;;;7.43;60.47;101754.84;6272817;22;45507;-81
2022/02/04 20:59:50;;;;;;;;;6.50;6.50;;;;;7.35;60.56;101740.69;6271343;22;46996;-81
2022/02/04 21:02:16;;;;;;;;;6.25;6.25;;;;;7.45;60.63;101771.50;6274839;22;45360;-82
2022/02/04 21:04:44;;;;;;;;;8.75;6.75;;;;;7.26;60.80;101742.22;6271929;22;45276;-82
2022/02/04 21:07:22;;;;;;;;;3.75;3.25;;;;;7.39;60.86;101773.97;6272467;22;45456;-80
2022/02/04 21:15:14;;;;;;;;;6.00;6.00;;;;;7.36;60.77;101787.00;6274475;22;45676;-81
2022/02/04 21:17:45;;;;;;;;;6.50;6.50;;;;;7.15;60.90;101761.13;6271954;22;45465;-81
2022/02/04 21:20:14;;;;;;;;;7.25;7.25;;;;;7.30;60.76;101787.72;6273786;22;46094;-83
2022/02/04 21:22:40;;;;;;;;;4.50;4.50;;;;;7.23;60.81;101777.94;6279951;22;45360;-81
2022/02/04 21:25:08;;;;;;;;;10.00;8.50;;;;;7.25;61.05;101784.97;6274977;22;45448;-81
2022/02/04 21:27:37;;;;;;;;;6.25;5.25;;;;;7.24;60.96;101790.16;6272060;22;45333;-81
2022/02/04 21:30:07;;;;;;;;;7.00;2.00;;;;;7.15;60.96;101784.69;6271137;22;46583;-82
2022/02/04 21:32:37;;;;;;;;;5.00;4.00;;;;;7.11;61.09;101781.13;6274168;22;45516;-80
2022/02/04 21:37:47;;;;;;;;;6.50;5.25;;;;;7.15;61.16;101801.28;6273725;22;45684;-80
2022/02/04 21:40:13;;;;;;;;;9.00;8.00;;;;;7.02;61.10;101778.22;6270010;22;45619;-81
2022/02/04 21:42:38;;;;;;;;;4.00;4.00;;;;;6.97;61.05;101775.47;6273974;22;45646;-82
2022/02/04 21:45:05;;;;;;;;;6.00;6.00;;;;;7.01;61.15;101785.19;6271864;22;45373;-82
2022/02/04 21:47:44;;;;;;;;;6.50;4.50;;;;;7.06;61.17;101791.44;6270164;22;45464;-80
2022/02/04 21:50:09;;;;;;;;;6.75;6.75;;;;;7.10;61.39;101808.13;6274054;22;46757;-82
2022/02/04 21:52:35;;;;;;;;;4.00;1.50;;;;;7.00;61.24;101796.53;6274000;22;45220;-83
2022/02/04 21:55:01;;;;;;;;;5.50;5.50;;;;;6.92;61.39;101786.66;6273798;22;45417;-83
2022/02/04 21:57:26;;;;;;;;;5.50;5.50;;;;;7.05;61.20;101807.97;6275353;22;45314;-82
2022/02/04 21:59:52;;;;;;;;;4.00;3.25;;;;;7.03;61.35;101808.78;6276444;22;46469;-82
2022/02/04 22:02:19;;;;;;;;;5.75;5.75;;;;;7.09;61.22;101829.94;6274431;22;45588;-82
2022/02/04 22:04:45;;;;;;;;;6.00;6.00;;;;;6.87;61.18;101794.41;6277148;22;45782;-84
2022/02/04 22:07:13;;;;;;;;;7.75;5.75;;;;;6.86;61.19;101797.84;6276514;22;45611;-83
2022/02/04 22:09:56;;;;;;;;;3.00;2.50;;;;;6.90;61.16;101804.09;6274921;22;45707;-81
2022/02/04 22:12:48;;;;;;;;;3.50;3.50;;;;;6.97;61.19;101832.19;6278321;22;45424;-80
2022/02/04 22:18:00;;;;;;;;;6.75;4.00;;;;;6.95;60.92;101839.09;6276501;22;45287;-82
2022/02/04 22:23:09;;;;;;;;;7.00;4.25;;;;;7.01;61.20;101866.34;6276054;22;45397;-81
2022/02/04 22:25:35;;;;;;;;;6.75;5.25;;;;;6.87;61.12;101849.38;6276546;22;45399;-83
2022/02/04 22:28:00;;;;;;;;;7.75;7.50;;;;;6.90;61.35;101854.69;6274715;22;45350;-82
2022/02/04 22:30:26;;;;;;;;;7.00;6.00;;;;;6.91;60.88;101869.53;6274126;22;47890;-81
2022/02/04 22:33:01;;;;;;;;;7.75;6.75;;;;;6.99;61.21;101888.09;6274694;22;45391;-82